Station Historical Data
Daily Summary for February 14, 2012 Units:  Both    English   Metric
« Previous Day
Next Day »
Daily Weekly Monthly Yearly Custom
  High: Low: Average:
Temperature: 46.3 °F /  7.9 °C 35.8 °F /  2.1 °C 41.2 °F /  5.1 °C
Dew Point: 44.4 °F /  6.9 °C 32.8 °F /  0.4 °C 39.6 °F /  4.2 °C
Humidity: 97% 88% 94%
Wind Speed: 16.0mph /  25.7km/h - 3.9mph /  6.3km/h
Wind Gust: 17.0mph /  27.4km/h - -
Wind- - South
Pressure: 30.13 in /  1020.2 hPa 29.95 in /  1014.1 hPa -
Precipitation: 0.05 in /  1.27 mm    
Historical Graphs
 
 
Tabular Data for February 14, 2012
Time Temperature Dew Point Pressure Wind Wind Speed Wind Gust Humidity Rainfall Rate (Hourly) Conditions
00:00 36.0 °F /  2.2 °C 32.8 °F /  0.4 °C 30.03in /  1016.8hPa SSE 5.0mph /  8km/h 10.0mph /  16.1km/h 88% 0.00in /  0mm
00:02 36.0 °F /  2.2 °C 32.8 °F /  0.4 °C 30.03in /  1016.8hPa SE 7.0mph /  11.3km/h 10.0mph /  16.1km/h 88% 0.00in /  0mm
00:07 36.0 °F /  2.2 °C 32.8 °F /  0.4 °C 30.04in /  1017.2hPa SSE 5.0mph /  8km/h 11.0mph /  17.7km/h 88% 0.00in /  0mm
00:12 36.0 °F /  2.2 °C 32.8 °F /  0.4 °C 30.04in /  1017.2hPa SSE 6.0mph /  9.7km/h 10.0mph /  16.1km/h 88% 0.00in /  0mm
00:17 36.0 °F /  2.2 °C 33.1 °F /  0.6 °C 30.04in /  1017.2hPa SSE 7.0mph /  11.3km/h 9.0mph /  14.5km/h 89% 0.00in /  0mm
00:22 36.0 °F /  2.2 °C 33.1 °F /  0.6 °C 30.03in /  1016.8hPa SE 9.0mph /  14.5km/h 12.0mph /  19.3km/h 89% 0.05in /  1.27mm
00:27 35.9 °F /  2.2 °C 33.0 °F /  0.6 °C 30.03in /  1016.8hPa South 11.0mph /  17.7km/h 13.0mph /  20.9km/h 89% 0.05in /  1.27mm
00:32 35.9 °F /  2.2 °C 33.3 °F /  0.7 °C 30.02in /  1016.5hPa SE 6.0mph /  9.7km/h 10.0mph /  16.1km/h 90% 0.05in /  1.27mm
00:37 35.8 °F /  2.1 °C 33.2 °F /  0.7 °C 30.02in /  1016.5hPa ESE 10.0mph /  16.1km/h 10.0mph /  16.1km/h 90% 0.00in /  0mm
00:42 35.8 °F /  2.1 °C 33.2 °F /  0.7 °C 30.01in /  1016.1hPa SE 6.0mph /  9.7km/h 9.0mph /  14.5km/h 90% 0.00in /  0mm
00:47 35.8 °F /  2.1 °C 33.2 °F /  0.7 °C 30.01in /  1016.1hPa SE 7.0mph /  11.3km/h 11.0mph /  17.7km/h 90% 0.00in /  0mm
00:52 35.9 °F /  2.2 °C 33.3 °F /  0.7 °C 30.01in /  1016.1hPa SE 4.0mph /  6.4km/h 10.0mph /  16.1km/h 90% 0.00in /  0mm
00:57 35.9 °F /  2.2 °C 33.3 °F /  0.7 °C 30.01in /  1016.1hPa SE 7.0mph /  11.3km/h 9.0mph /  14.5km/h 90% 0.00in /  0mm
01:02 36.0 °F /  2.2 °C 33.4 °F /  0.8 °C 30.02in /  1016.5hPa SSE 7.0mph /  11.3km/h 10.0mph /  16.1km/h 90% 0.00in /  0mm
01:07 36.1 °F /  2.3 °C 33.5 °F /  0.8 °C 30.02in /  1016.5hPa SE 6.0mph /  9.7km/h 9.0mph /  14.5km/h 90% 0.00in /  0mm
01:12 36.2 °F /  2.3 °C 33.6 °F /  0.9 °C 30.02in /  1016.5hPa SSE 7.0mph /  11.3km/h 9.0mph /  14.5km/h 90% 0.00in /  0mm
01:17 36.3 °F /  2.4 °C 33.7 °F /  0.9 °C 30.02in /  1016.5hPa SE 6.0mph /  9.7km/h 9.0mph /  14.5km/h 90% 0.00in /  0mm
01:22 36.3 °F /  2.4 °C 33.7 °F /  0.9 °C 30.02in /  1016.5hPa SSE 5.0mph /  8km/h 11.0mph /  17.7km/h 90% 0.00in /  0mm
01:27 36.4 °F /  2.4 °C 33.8 °F /  1 °C 30.02in /  1016.5hPa SSE 8.0mph /  12.9km/h 10.0mph /  16.1km/h 90% 0.00in /  0mm
01:32 36.5 °F /  2.5 °C 33.8 °F /  1 °C 30.01in /  1016.1hPa SE 6.0mph /  9.7km/h 10.0mph /  16.1km/h 90% 0.00in /  0mm
01:38 36.5 °F /  2.5 °C 33.8 °F /  1 °C 30.00in /  1015.8hPa SE 10.0mph /  16.1km/h 10.0mph /  16.1km/h 90% 0.00in /  0mm
01:43 36.5 °F /  2.5 °C 33.8 °F /  1 °C 29.99in /  1015.5hPa SE 8.0mph /  12.9km/h 11.0mph /  17.7km/h 90% 0.00in /  0mm
01:48 36.7 °F /  2.6 °C 34.0 °F /  1.1 °C 29.99in /  1015.5hPa SE 8.0mph /  12.9km/h 13.0mph /  20.9km/h 90% 0.00in /  0mm
01:53 36.7 °F /  2.6 °C 34.0 °F /  1.1 °C 29.99in /  1015.5hPa SE 16.0mph /  25.7km/h 16.0mph /  25.7km/h 90% 0.00in /  0mm
01:58 36.8 °F /  2.7 °C 34.2 °F /  1.2 °C 29.98in /  1015.1hPa SE 11.0mph /  17.7km/h 15.0mph /  24.1km/h 90% 0.00in /  0mm
02:03 36.8 °F /  2.7 °C 34.2 °F /  1.2 °C 29.98in /  1015.1hPa ESE 9.0mph /  14.5km/h 17.0mph /  27.4km/h 90% 0.00in /  0mm
02:08 36.8 °F /  2.7 °C 34.2 °F /  1.2 °C 29.98in /  1015.1hPa SE 12.0mph /  19.3km/h 17.0mph /  27.4km/h 90% 0.00in /  0mm
02:13 36.8 °F /  2.7 °C 34.2 °F /  1.2 °C 29.98in /  1015.1hPa SSE 9.0mph /  14.5km/h 13.0mph /  20.9km/h 90% 0.00in /  0mm
02:18 36.9 °F /  2.7 °C 34.2 °F /  1.2 °C 29.98in /  1015.1hPa SE 9.0mph /  14.5km/h 13.0mph /  20.9km/h 90% 0.00in /  0mm
02:23 36.9 °F /  2.7 °C 34.2 °F /  1.2 °C 29.98in /  1015.1hPa SSE 9.0mph /  14.5km/h 10.0mph /  16.1km/h 90% 0.00in /  0mm
02:28 36.9 °F /  2.7 °C 34.5 °F /  1.4 °C 29.98in /  1015.1hPa SSE 6.0mph /  9.7km/h 14.0mph /  22.5km/h 91% 0.00in /  0mm
02:33 36.9 °F /  2.7 °C 34.5 °F /  1.4 °C 29.98in /  1015.1hPa ESE 13.0mph /  20.9km/h 15.0mph /  24.1km/h 91% 0.00in /  0mm
02:38 36.9 °F /  2.7 °C 34.5 °F /  1.4 °C 29.97in /  1014.8hPa SSE 10.0mph /  16.1km/h 10.0mph /  16.1km/h 91% 0.00in /  0mm
02:43 36.9 °F /  2.7 °C 34.8 °F /  1.6 °C 29.97in /  1014.8hPa SE 9.0mph /  14.5km/h 11.0mph /  17.7km/h 92% 0.00in /  0mm
02:48 36.9 °F /  2.7 °C 34.8 °F /  1.6 °C 29.97in /  1014.8hPa ESE 10.0mph /  16.1km/h 12.0mph /  19.3km/h 92% 0.00in /  0mm
02:53 36.8 °F /  2.7 °C 35.0 °F /  1.7 °C 29.97in /  1014.8hPa SE 9.0mph /  14.5km/h 13.0mph /  20.9km/h 93% 0.00in /  0mm
02:58 36.8 °F /  2.7 °C 35.0 °F /  1.7 °C 29.96in /  1014.4hPa SE 10.0mph /  16.1km/h 11.0mph /  17.7km/h 93% 0.00in /  0mm
03:03 36.7 °F /  2.6 °C 34.9 °F /  1.6 °C 29.96in /  1014.4hPa SE 6.0mph /  9.7km/h 10.0mph /  16.1km/h 93% 0.00in /  0mm
03:08 36.8 °F /  2.7 °C 35.0 °F /  1.7 °C 29.96in /  1014.4hPa SE 8.0mph /  12.9km/h 9.0mph /  14.5km/h 93% 0.00in /  0mm
03:13 36.8 °F /  2.7 °C 35.2 °F /  1.8 °C 29.96in /  1014.4hPa SSE 6.0mph /  9.7km/h 9.0mph /  14.5km/h 94% 0.00in /  0mm
03:19 36.7 °F /  2.6 °C 35.1 °F /  1.7 °C 29.96in /  1014.4hPa SE 7.0mph /  11.3km/h 10.0mph /  16.1km/h 94% 0.00in /  0mm
03:24 36.8 °F /  2.7 °C 35.2 °F /  1.8 °C 29.96in /  1014.4hPa SE 8.0mph /  12.9km/h 10.0mph /  16.1km/h 94% 0.24in /  6.1mm
03:29 36.8 °F /  2.7 °C 35.2 °F /  1.8 °C 29.96in /  1014.4hPa SSE 4.0mph /  6.4km/h 9.0mph /  14.5km/h 94% 0.07in /  1.78mm
03:34 36.9 °F /  2.7 °C 35.3 °F /  1.8 °C 29.96in /  1014.4hPa SE 6.0mph /  9.7km/h 9.0mph /  14.5km/h 94% 0.05in /  1.27mm
03:39 37.0 °F /  2.8 °C 35.7 °F /  2.1 °C 29.96in /  1014.4hPa SSE 9.0mph /  14.5km/h 10.0mph /  16.1km/h 95% 0.00in /  0mm
03:44 37.0 °F /  2.8 °C 35.7 °F /  2.1 °C 29.96in /  1014.4hPa SSE 4.0mph /  6.4km/h 9.0mph /  14.5km/h 95% 0.00in /  0mm
03:49 37.1 °F /  2.8 °C 35.8 °F /  2.1 °C 29.95in /  1014.1hPa SE 6.0mph /  9.7km/h 6.0mph /  9.7km/h 95% 0.00in /  0mm
03:54 37.1 °F /  2.8 °C 35.8 °F /  2.1 °C 29.95in /  1014.1hPa SSE 7.0mph /  11.3km/h 13.0mph /  20.9km/h 95% 0.00in /  0mm
03:59 37.2 °F /  2.9 °C 35.9 °F /  2.2 °C 29.95in /  1014.1hPa South 6.0mph /  9.7km/h 8.0mph /  12.9km/h 95% 0.00in /  0mm
04:04 37.2 °F /  2.9 °C 35.6 °F /  2 °C 29.95in /  1014.1hPa SE 5.0mph /  8km/h 10.0mph /  16.1km/h 94% 0.00in /  0mm
04:09 37.3 °F /  2.9 °C 35.7 °F /  2.1 °C 29.95in /  1014.1hPa ESE 6.0mph /  9.7km/h 9.0mph /  14.5km/h 94% 0.00in /  0mm
04:14 37.3 °F /  2.9 °C 35.7 °F /  2.1 °C 29.95in /  1014.1hPa SE 8.0mph /  12.9km/h 9.0mph /  14.5km/h 94% 0.00in /  0mm
04:19 37.4 °F /  3 °C 35.8 °F /  2.1 °C 29.95in /  1014.1hPa SE 4.0mph /  6.4km/h 9.0mph /  14.5km/h 94% 0.00in /  0mm
04:24 37.4 °F /  3 °C 35.8 °F /  2.1 °C 29.95in /  1014.1hPa SE 5.0mph /  8km/h 8.0mph /  12.9km/h 94% 0.00in /  0mm
04:29 37.4 °F /  3 °C 35.8 °F /  2.1 °C 29.95in /  1014.1hPa SSE 8.0mph /  12.9km/h 9.0mph /  14.5km/h 94% 0.00in /  0mm
04:34 37.5 °F /  3.1 °C 36.2 °F /  2.3 °C 29.95in /  1014.1hPa SSE 6.0mph /  9.7km/h 9.0mph /  14.5km/h 95% 0.00in /  0mm
04:39 37.5 °F /  3.1 °C 36.2 °F /  2.3 °C 29.95in /  1014.1hPa SE 8.0mph /  12.9km/h 12.0mph /  19.3km/h 95% 0.00in /  0mm
04:44 37.5 °F /  3.1 °C 36.2 °F /  2.3 °C 29.96in /  1014.4hPa SE 6.0mph /  9.7km/h 7.0mph /  11.3km/h 95% 0.00in /  0mm
04:49 37.5 °F /  3.1 °C 36.2 °F /  2.3 °C 29.96in /  1014.4hPa SE 7.0mph /  11.3km/h 9.0mph /  14.5km/h 95% 0.00in /  0mm
04:54 37.5 °F /  3.1 °C 36.2 °F /  2.3 °C 29.96in /  1014.4hPa South 9.0mph /  14.5km/h 10.0mph /  16.1km/h 95% 0.00in /  0mm
04:59 37.6 °F /  3.1 °C 36.3 °F /  2.4 °C 29.96in /  1014.4hPa SSW 3.0mph /  4.8km/h 8.0mph /  12.9km/h 95% 0.00in /  0mm
05:04 37.6 °F /  3.1 °C 36.3 °F /  2.4 °C 29.95in /  1014.1hPa SE 7.0mph /  11.3km/h 7.0mph /  11.3km/h 95% 0.00in /  0mm
05:09 37.6 °F /  3.1 °C 36.3 °F /  2.4 °C 29.95in /  1014.1hPa SE 7.0mph /  11.3km/h 8.0mph /  12.9km/h 95% 0.00in /  0mm
05:14 37.6 °F /  3.1 °C 36.3 °F /  2.4 °C 29.96in /  1014.4hPa SE 4.0mph /  6.4km/h 6.0mph /  9.7km/h 95% 0.00in /  0mm
05:19 37.6 °F /  3.1 °C 36.3 °F /  2.4 °C 29.96in /  1014.4hPa SSE 7.0mph /  11.3km/h 7.0mph /  11.3km/h 95% 0.00in /  0mm
05:24 37.6 °F /  3.1 °C 36.3 °F /  2.4 °C 29.95in /  1014.1hPa SE 6.0mph /  9.7km/h 7.0mph /  11.3km/h 95% 0.00in /  0mm
05:29 37.6 °F /  3.1 °C 36.3 °F /  2.4 °C 29.95in /  1014.1hPa SSE 4.0mph /  6.4km/h 7.0mph /  11.3km/h 95% 0.00in /  0mm
05:34 37.6 °F /  3.1 °C 36.3 °F /  2.4 °C 29.96in /  1014.4hPa SE 5.0mph /  8km/h 6.0mph /  9.7km/h 95% 0.00in /  0mm
05:39 37.7 °F /  3.2 °C 36.4 °F /  2.4 °C 29.95in /  1014.1hPa South 4.0mph /  6.4km/h 9.0mph /  14.5km/h 95% 0.00in /  0mm
05:45 37.7 °F /  3.2 °C 36.4 °F /  2.4 °C 29.96in /  1014.4hPa SE 4.0mph /  6.4km/h 8.0mph /  12.9km/h 95% 0.00in /  0mm
05:50 37.7 °F /  3.2 °C 36.4 °F /  2.4 °C 29.96in /  1014.4hPa SSE 3.0mph /  4.8km/h 6.0mph /  9.7km/h 95% 0.00in /  0mm
05:55 37.7 °F /  3.2 °C 36.4 °F /  2.4 °C 29.96in /  1014.4hPa SE 6.0mph /  9.7km/h 7.0mph /  11.3km/h 95% 0.00in /  0mm
06:00 37.8 °F /  3.2 °C 36.5 °F /  2.5 °C 29.96in /  1014.4hPa SSE 7.0mph /  11.3km/h 9.0mph /  14.5km/h 95% 0.00in /  0mm
06:05 37.8 °F /  3.2 °C 36.5 °F /  2.5 °C 29.96in /  1014.4hPa SSE 6.0mph /  9.7km/h 9.0mph /  14.5km/h 95% 0.00in /  0mm
06:10 37.8 °F /  3.2 °C 36.5 °F /  2.5 °C 29.96in /  1014.4hPa SSE 4.0mph /  6.4km/h 6.0mph /  9.7km/h 95% 0.00in /  0mm
06:15 37.8 °F /  3.2 °C 36.5 °F /  2.5 °C 29.96in /  1014.4hPa SSE 4.0mph /  6.4km/h 7.0mph /  11.3km/h 95% 0.00in /  0mm
06:20 37.8 °F /  3.2 °C 36.5 °F /  2.5 °C 29.96in /  1014.4hPa SSE 6.0mph /  9.7km/h 7.0mph /  11.3km/h 95% 0.00in /  0mm
06:25 37.8 °F /  3.2 °C 36.5 °F /  2.5 °C 29.96in /  1014.4hPa SE 4.0mph /  6.4km/h 7.0mph /  11.3km/h 95% 0.00in /  0mm
06:30 37.8 °F /  3.2 °C 36.5 °F /  2.5 °C 29.96in /  1014.4hPa SSE 5.0mph /  8km/h 7.0mph /  11.3km/h 95% 0.00in /  0mm
06:35 37.8 °F /  3.2 °C 36.5 °F /  2.5 °C 29.96in /  1014.4hPa SSE 5.0mph /  8km/h 6.0mph /  9.7km/h 95% 0.00in /  0mm
06:40 37.8 °F /  3.2 °C 36.5 °F /  2.5 °C 29.96in /  1014.4hPa SE 5.0mph /  8km/h 5.0mph /  8km/h 95% 0.00in /  0mm
06:45 37.8 °F /  3.2 °C 36.8 °F /  2.7 °C 29.96in /  1014.4hPa SE 5.0mph /  8km/h 7.0mph /  11.3km/h 96% 0.00in /  0mm
06:46 37.8 °F /  3.2 °C 36.8 °F /  2.7 °C 29.96in /  1014.4hPa SE 6.0mph /  9.7km/h 7.0mph /  11.3km/h 96% 0.00in /  0mm
06:51 37.9 °F /  3.3 °C 36.9 °F /  2.7 °C 29.96in /  1014.4hPa SE 4.0mph /  6.4km/h 5.0mph /  8km/h 96% 0.00in /  0mm
06:56 37.9 °F /  3.3 °C 36.9 °F /  2.7 °C 29.96in /  1014.4hPa SE 6.0mph /  9.7km/h 6.0mph /  9.7km/h 96% 0.00in /  0mm
07:01 37.9 °F /  3.3 °C 36.9 °F /  2.7 °C 29.97in /  1014.8hPa SSE 6.0mph /  9.7km/h 6.0mph /  9.7km/h 96% 0.00in /  0mm
07:06 37.9 °F /  3.3 °C 36.9 °F /  2.7 °C 29.97in /  1014.8hPa South 6.0mph /  9.7km/h 9.0mph /  14.5km/h 96% 0.00in /  0mm
07:11 37.9 °F /  3.3 °C 36.9 °F /  2.7 °C 29.97in /  1014.8hPa SSE 3.0mph /  4.8km/h 7.0mph /  11.3km/h 96% 0.00in /  0mm
07:16 38.0 °F /  3.3 °C 37.0 °F /  2.8 °C 29.97in /  1014.8hPa SSW 3.0mph /  4.8km/h 6.0mph /  9.7km/h 96% 0.00in /  0mm
07:21 37.9 °F /  3.3 °C 36.9 °F /  2.7 °C 29.97in /  1014.8hPa SE 3.0mph /  4.8km/h 5.0mph /  8km/h 96% 0.00in /  0mm
07:26 38.0 °F /  3.3 °C 37.0 °F /  2.8 °C 29.97in /  1014.8hPa SSE 4.0mph /  6.4km/h 5.0mph /  8km/h 96% 0.00in /  0mm
07:32 38.0 °F /  3.3 °C 37.0 °F /  2.8 °C 29.97in /  1014.8hPa SSE 2.0mph /  3.2km/h 6.0mph /  9.7km/h 96% 0.00in /  0mm
07:37 38.1 °F /  3.4 °C 37.1 °F /  2.8 °C 29.97in /  1014.8hPa ESE 5.0mph /  8km/h 5.0mph /  8km/h 96% 0.00in /  0mm
07:42 38.1 °F /  3.4 °C 37.1 °F /  2.8 °C 29.97in /  1014.8hPa SSE 5.0mph /  8km/h 6.0mph /  9.7km/h 96% 0.00in /  0mm
07:47 38.1 °F /  3.4 °C 37.1 °F /  2.8 °C 29.97in /  1014.8hPa SSE 3.0mph /  4.8km/h 5.0mph /  8km/h 96% 0.00in /  0mm
07:52 38.1 °F /  3.4 °C 37.1 °F /  2.8 °C 29.97in /  1014.8hPa SSE 4.0mph /  6.4km/h 6.0mph /  9.7km/h 96% 0.00in /  0mm
07:57 38.1 °F /  3.4 °C 37.1 °F /  2.8 °C 29.98in /  1015.1hPa SE 3.0mph /  4.8km/h 6.0mph /  9.7km/h 96% 0.00in /  0mm
08:02 38.2 °F /  3.4 °C 37.2 °F /  2.9 °C 29.98in /  1015.1hPa SSE 3.0mph /  4.8km/h 4.0mph /  6.4km/h 96% 0.00in /  0mm
08:07 38.3 °F /  3.5 °C 37.3 °F /  2.9 °C 29.98in /  1015.1hPa SSE 4.0mph /  6.4km/h 5.0mph /  8km/h 96% 0.00in /  0mm
08:12 38.4 °F /  3.6 °C 37.4 °F /  3 °C 29.99in /  1015.5hPa SSE 3.0mph /  4.8km/h 5.0mph /  8km/h 96% 0.00in /  0mm
08:17 38.4 °F /  3.6 °C 37.4 °F /  3 °C 29.99in /  1015.5hPa SSE 4.0mph /  6.4km/h 5.0mph /  8km/h 96% 0.00in /  0mm
08:22 38.5 °F /  3.6 °C 37.5 °F /  3.1 °C 29.99in /  1015.5hPa SE 3.0mph /  4.8km/h 5.0mph /  8km/h 96% 0.00in /  0mm
08:27 38.6 °F /  3.7 °C 37.6 °F /  3.1 °C 29.99in /  1015.5hPa SSE 4.0mph /  6.4km/h 5.0mph /  8km/h 96% 0.00in /  0mm
08:32 38.6 °F /  3.7 °C 37.6 °F /  3.1 °C 29.99in /  1015.5hPa SSE 2.0mph /  3.2km/h 5.0mph /  8km/h 96% 0.00in /  0mm
08:37 38.7 °F /  3.7 °C 37.7 °F /  3.2 °C 29.99in /  1015.5hPa SE 6.0mph /  9.7km/h 6.0mph /  9.7km/h 96% 0.00in /  0mm
08:42 38.8 °F /  3.8 °C 37.8 °F /  3.2 °C 30.00in /  1015.8hPa South 4.0mph /  6.4km/h 6.0mph /  9.7km/h 96% 0.00in /  0mm
08:47 38.9 °F /  3.8 °C 37.9 °F /  3.3 °C 29.99in /  1015.5hPa SE 3.0mph /  4.8km/h 7.0mph /  11.3km/h 96% 0.00in /  0mm
08:52 39.0 °F /  3.9 °C 38.0 °F /  3.3 °C 30.00in /  1015.8hPa SE 3.0mph /  4.8km/h 5.0mph /  8km/h 96% 0.00in /  0mm
08:57 39.1 °F /  3.9 °C 38.1 °F /  3.4 °C 30.00in /  1015.8hPa SSE 4.0mph /  6.4km/h 6.0mph /  9.7km/h 96% 0.00in /  0mm
09:02 39.2 °F /  4 °C 38.2 °F /  3.4 °C 30.00in /  1015.8hPa South 3.0mph /  4.8km/h 5.0mph /  8km/h 96% 0.00in /  0mm
09:07 39.3 °F /  4.1 °C 38.3 °F /  3.5 °C 30.00in /  1015.8hPa SSE 3.0mph /  4.8km/h 6.0mph /  9.7km/h 96% 0.00in /  0mm
09:12 39.4 °F /  4.1 °C 38.4 °F /  3.6 °C 30.00in /  1015.8hPa SE 6.0mph /  9.7km/h 6.0mph /  9.7km/h 96% 0.00in /  0mm
09:17 39.5 °F /  4.2 °C 38.5 °F /  3.6 °C 30.00in /  1015.8hPa South 5.0mph /  8km/h 8.0mph /  12.9km/h 96% 0.00in /  0mm
09:22 39.6 °F /  4.2 °C 38.6 °F /  3.7 °C 30.00in /  1015.8hPa SSE 5.0mph /  8km/h 8.0mph /  12.9km/h 96% 0.00in /  0mm
09:27 39.7 °F /  4.3 °C 38.7 °F /  3.7 °C 30.01in /  1016.1hPa SSE 4.0mph /  6.4km/h 7.0mph /  11.3km/h 96% 0.00in /  0mm
09:32 39.7 °F /  4.3 °C 38.9 °F /  3.8 °C 30.01in /  1016.1hPa SSE 5.0mph /  8km/h 6.0mph /  9.7km/h 97% 0.00in /  0mm
09:38 39.8 °F /  4.3 °C 38.8 °F /  3.8 °C 30.01in /  1016.1hPa SE 5.0mph /  8km/h 6.0mph /  9.7km/h 96% 0.00in /  0mm
09:43 40.0 °F /  4.4 °C 39.2 °F /  4 °C 30.01in /  1016.1hPa SE 2.0mph /  3.2km/h 7.0mph /  11.3km/h 97% 0.00in /  0mm
09:48 40.0 °F /  4.4 °C 39.2 °F /  4 °C 30.01in /  1016.1hPa SSE 5.0mph /  8km/h 7.0mph /  11.3km/h 97% 0.00in /  0mm
09:53 40.1 °F /  4.5 °C 39.3 °F /  4.1 °C 30.01in /  1016.1hPa SSE 6.0mph /  9.7km/h 6.0mph /  9.7km/h 97% 0.00in /  0mm
09:58 40.3 °F /  4.6 °C 39.5 °F /  4.2 °C 30.01in /  1016.1hPa SE 2.0mph /  3.2km/h 6.0mph /  9.7km/h 97% 0.00in /  0mm
10:03 40.3 °F /  4.6 °C 39.5 °F /  4.2 °C 30.01in /  1016.1hPa SSW 2.0mph /  3.2km/h 5.0mph /  8km/h 97% 0.00in /  0mm
10:08 40.5 °F /  4.7 °C 39.7 °F /  4.3 °C 30.01in /  1016.1hPa SSW 4.0mph /  6.4km/h 5.0mph /  8km/h 97% 0.00in /  0mm
10:13 40.7 °F /  4.8 °C 39.9 °F /  4.4 °C 30.01in /  1016.1hPa SSW 4.0mph /  6.4km/h 4.0mph /  6.4km/h 97% 0.00in /  0mm
10:18 40.8 °F /  4.9 °C 40.0 °F /  4.4 °C 30.01in /  1016.1hPa SSW 2.0mph /  3.2km/h 3.0mph /  4.8km/h 97% 0.00in /  0mm
10:23 40.9 °F /  4.9 °C 40.1 °F /  4.5 °C 30.01in /  1016.1hPa SSE 3.0mph /  4.8km/h 5.0mph /  8km/h 97% 0.00in /  0mm
10:28 40.9 °F /  4.9 °C 40.1 °F /  4.5 °C 30.01in /  1016.1hPa South 4.0mph /  6.4km/h 4.0mph /  6.4km/h 97% 0.00in /  0mm
10:33 41.0 °F /  5 °C 40.2 °F /  4.6 °C 30.01in /  1016.1hPa SE 3.0mph /  4.8km/h 4.0mph /  6.4km/h 97% 0.00in /  0mm
10:38 41.2 °F /  5.1 °C 40.4 °F /  4.7 °C 30.02in /  1016.5hPa SSW 2.0mph /  3.2km/h 5.0mph /  8km/h 97% 0.00in /  0mm
10:43 41.3 °F /  5.2 °C 40.5 °F /  4.7 °C 30.02in /  1016.5hPa SW 2.0mph /  3.2km/h 4.0mph /  6.4km/h 97% 0.00in /  0mm
10:48 41.5 °F /  5.3 °C 40.7 °F /  4.8 °C 30.02in /  1016.5hPa SSW 3.0mph /  4.8km/h 7.0mph /  11.3km/h 97% 0.00in /  0mm
10:53 41.7 °F /  5.4 °C 40.9 °F /  4.9 °C 30.02in /  1016.5hPa South 6.0mph /  9.7km/h 6.0mph /  9.7km/h 97% 0.00in /  0mm
10:58 41.8 °F /  5.4 °C 41.0 °F /  5 °C 30.02in /  1016.5hPa South 4.0mph /  6.4km/h 7.0mph /  11.3km/h 97% 0.00in /  0mm
11:03 41.9 °F /  5.5 °C 41.1 °F /  5.1 °C 30.02in /  1016.5hPa SSW 4.0mph /  6.4km/h 7.0mph /  11.3km/h 97% 0.00in /  0mm
11:08 42.0 °F /  5.6 °C 41.2 °F /  5.1 °C 30.02in /  1016.5hPa South 4.0mph /  6.4km/h 5.0mph /  8km/h 97% 0.00in /  0mm
11:13 42.1 °F /  5.6 °C 41.3 °F /  5.2 °C 30.02in /  1016.5hPa South 3.0mph /  4.8km/h 7.0mph /  11.3km/h 97% 0.00in /  0mm
11:18 42.2 °F /  5.7 °C 41.4 °F /  5.2 °C 30.02in /  1016.5hPa SSW 3.0mph /  4.8km/h 6.0mph /  9.7km/h 97% 0.00in /  0mm
11:23 42.4 °F /  5.8 °C 41.6 °F /  5.3 °C 30.02in /  1016.5hPa SSE 5.0mph /  8km/h 5.0mph /  8km/h 97% 0.00in /  0mm
11:28 42.5 °F /  5.8 °C 41.7 °F /  5.4 °C 30.02in /  1016.5hPa South 4.0mph /  6.4km/h 5.0mph /  8km/h 97% 0.00in /  0mm
11:33 42.6 °F /  5.9 °C 41.8 °F /  5.4 °C 30.02in /  1016.5hPa South 1.0mph /  1.6km/h 5.0mph /  8km/h 97% 0.00in /  0mm
11:38 42.8 °F /  6 °C 42.0 °F /  5.6 °C 30.02in /  1016.5hPa South 4.0mph /  6.4km/h 6.0mph /  9.7km/h 97% 0.00in /  0mm
11:43 42.8 °F /  6 °C 42.0 °F /  5.6 °C 30.01in /  1016.1hPa SE 2.0mph /  3.2km/h 5.0mph /  8km/h 97% 0.00in /  0mm
11:48 42.7 °F /  5.9 °C 41.9 °F /  5.5 °C 30.01in /  1016.1hPa SW 3.0mph /  4.8km/h 6.0mph /  9.7km/h 97% 0.00in /  0mm
11:53 42.8 °F /  6 °C 42.0 °F /  5.6 °C 30.01in /  1016.1hPa SSE 6.0mph /  9.7km/h 7.0mph /  11.3km/h 97% 0.00in /  0mm
11:58 42.9 °F /  6.1 °C 41.8 °F /  5.4 °C 30.01in /  1016.1hPa South 5.0mph /  8km/h 6.0mph /  9.7km/h 96% 0.00in /  0mm
12:03 43.0 °F /  6.1 °C 41.9 °F /  5.5 °C 30.01in /  1016.1hPa SSW 3.0mph /  4.8km/h 5.0mph /  8km/h 96% 0.00in /  0mm
12:08 43.2 °F /  6.2 °C 42.4 °F /  5.8 °C 30.01in /  1016.1hPa SSW 2.0mph /  3.2km/h 5.0mph /  8km/h 97% 0.00in /  0mm
12:13 43.3 °F /  6.3 °C 42.5 °F /  5.8 °C 30.01in /  1016.1hPa South 3.0mph /  4.8km/h 4.0mph /  6.4km/h 97% 0.00in /  0mm
12:18 43.5 °F /  6.4 °C 42.7 °F /  5.9 °C 30.01in /  1016.1hPa SSE 4.0mph /  6.4km/h 5.0mph /  8km/h 97% 0.00in /  0mm
12:23 43.5 °F /  6.4 °C 42.7 °F /  5.9 °C 30.01in /  1016.1hPa SW 5.0mph /  8km/h 6.0mph /  9.7km/h 97% 0.00in /  0mm
12:28 43.4 °F /  6.3 °C 42.3 °F /  5.7 °C 30.01in /  1016.1hPa SW 1.0mph /  1.6km/h 6.0mph /  9.7km/h 96% 0.00in /  0mm
12:33 43.5 °F /  6.4 °C 42.4 °F /  5.8 °C 30.01in /  1016.1hPa WSW 3.0mph /  4.8km/h 5.0mph /  8km/h 96% 0.00in /  0mm
12:38 43.5 °F /  6.4 °C 42.4 °F /  5.8 °C 30.01in /  1016.1hPa WSW 4.0mph /  6.4km/h 5.0mph /  8km/h 96% 0.00in /  0mm
12:43 43.5 °F /  6.4 °C 42.4 °F /  5.8 °C 30.01in /  1016.1hPa West 3.0mph /  4.8km/h 6.0mph /  9.7km/h 96% 0.00in /  0mm
12:49 43.6 °F /  6.4 °C 42.5 °F /  5.8 °C 30.01in /  1016.1hPa WSW 4.0mph /  6.4km/h 6.0mph /  9.7km/h 96% 0.00in /  0mm
12:54 43.6 °F /  6.4 °C 42.5 °F /  5.8 °C 30.01in /  1016.1hPa WSW 4.0mph /  6.4km/h 6.0mph /  9.7km/h 96% 0.00in /  0mm
12:59 43.6 °F /  6.4 °C 42.5 °F /  5.8 °C 30.00in /  1015.8hPa SW 6.0mph /  9.7km/h 6.0mph /  9.7km/h 96% 0.00in /  0mm
13:04 43.7 °F /  6.5 °C 42.6 °F /  5.9 °C 30.00in /  1015.8hPa SW 4.0mph /  6.4km/h 6.0mph /  9.7km/h 96% 0.00in /  0mm
13:09 43.8 °F /  6.6 °C 42.7 °F /  5.9 °C 30.00in /  1015.8hPa South 4.0mph /  6.4km/h 5.0mph /  8km/h 96% 0.00in /  0mm
13:14 43.9 °F /  6.6 °C 42.8 °F /  6 °C 30.00in /  1015.8hPa SSW 4.0mph /  6.4km/h 7.0mph /  11.3km/h 96% 0.00in /  0mm
13:19 43.9 °F /  6.6 °C 42.8 °F /  6 °C 30.00in /  1015.8hPa SW 5.0mph /  8km/h 6.0mph /  9.7km/h 96% 0.00in /  0mm
13:24 44.0 °F /  6.7 °C 42.9 °F /  6.1 °C 30.00in /  1015.8hPa South 3.0mph /  4.8km/h 7.0mph /  11.3km/h 96% 0.00in /  0mm
13:29 44.2 °F /  6.8 °C 43.1 °F /  6.2 °C 30.00in /  1015.8hPa WSW 4.0mph /  6.4km/h 5.0mph /  8km/h 96% 0.00in /  0mm
13:34 44.4 °F /  6.9 °C 43.3 °F /  6.3 °C 30.00in /  1015.8hPa SSW 8.0mph /  12.9km/h 8.0mph /  12.9km/h 96% 0.00in /  0mm
13:39 44.5 °F /  6.9 °C 43.4 °F /  6.3 °C 30.00in /  1015.8hPa WSW 3.0mph /  4.8km/h 7.0mph /  11.3km/h 96% 0.00in /  0mm
13:44 44.5 °F /  6.9 °C 43.4 °F /  6.3 °C 29.99in /  1015.5hPa SW 5.0mph /  8km/h 6.0mph /  9.7km/h 96% 0.00in /  0mm
13:49 44.8 °F /  7.1 °C 43.7 °F /  6.5 °C 30.00in /  1015.8hPa WSW 4.0mph /  6.4km/h 5.0mph /  8km/h 96% 0.00in /  0mm
13:54 44.9 °F /  7.2 °C 43.8 °F /  6.6 °C 29.99in /  1015.5hPa SW 5.0mph /  8km/h 7.0mph /  11.3km/h 96% 0.00in /  0mm
13:59 44.8 °F /  7.1 °C 43.5 °F /  6.4 °C 29.99in /  1015.5hPa SW 5.0mph /  8km/h 8.0mph /  12.9km/h 95% 0.00in /  0mm
14:04 44.7 °F /  7.1 °C 43.4 °F /  6.3 °C 29.99in /  1015.5hPa WSW 4.0mph /  6.4km/h 6.0mph /  9.7km/h 95% 0.00in /  0mm
14:09 44.8 °F /  7.1 °C 43.5 °F /  6.4 °C 29.99in /  1015.5hPa WSW 6.0mph /  9.7km/h 6.0mph /  9.7km/h 95% 0.00in /  0mm
14:14 44.7 °F /  7.1 °C 43.4 °F /  6.3 °C 30.00in /  1015.8hPa WSW 4.0mph /  6.4km/h 6.0mph /  9.7km/h 95% 0.00in /  0mm
14:19 44.7 °F /  7.1 °C 43.4 °F /  6.3 °C 30.00in /  1015.8hPa West 2.0mph /  3.2km/h 7.0mph /  11.3km/h 95% 0.00in /  0mm
14:24 44.9 °F /  7.2 °C 43.6 °F /  6.4 °C 30.00in /  1015.8hPa WSW 5.0mph /  8km/h 6.0mph /  9.7km/h 95% 0.00in /  0mm
14:30 45.0 °F /  7.2 °C 43.7 °F /  6.5 °C 30.00in /  1015.8hPa WSW 5.0mph /  8km/h 6.0mph /  9.7km/h 95% 0.00in /  0mm
14:35 45.0 °F /  7.2 °C 43.7 °F /  6.5 °C 30.00in /  1015.8hPa WSW 3.0mph /  4.8km/h 6.0mph /  9.7km/h 95% 0.00in /  0mm
14:41 45.2 °F /  7.3 °C 43.9 °F /  6.6 °C 30.00in /  1015.8hPa WSW 4.0mph /  6.4km/h 7.0mph /  11.3km/h 95% 0.00in /  0mm
14:46 45.1 °F /  7.3 °C 43.5 °F /  6.4 °C 30.00in /  1015.8hPa WSW 3.0mph /  4.8km/h 8.0mph /  12.9km/h 94% 0.00in /  0mm
14:51 45.1 °F /  7.3 °C 43.5 °F /  6.4 °C 30.00in /  1015.8hPa SW 4.0mph /  6.4km/h 6.0mph /  9.7km/h 94% 0.00in /  0mm
14:56 45.2 °F /  7.3 °C 43.6 °F /  6.4 °C 30.00in /  1015.8hPa SW 4.0mph /  6.4km/h 8.0mph /  12.9km/h 94% 0.00in /  0mm
15:01 45.2 °F /  7.3 °C 43.6 °F /  6.4 °C 30.00in /  1015.8hPa SSW 7.0mph /  11.3km/h 7.0mph /  11.3km/h 94% 0.00in /  0mm
15:06 45.2 °F /  7.3 °C 43.6 °F /  6.4 °C 30.00in /  1015.8hPa SW 3.0mph /  4.8km/h 5.0mph /  8km/h 94% 0.00in /  0mm
15:11 45.3 °F /  7.4 °C 43.7 °F /  6.5 °C 30.00in /  1015.8hPa WSW 3.0mph /  4.8km/h 5.0mph /  8km/h 94% 0.00in /  0mm
15:16 45.4 °F /  7.4 °C 43.8 °F /  6.6 °C 30.00in /  1015.8hPa SW 2.0mph /  3.2km/h 6.0mph /  9.7km/h 94% 0.00in /  0mm
15:21 45.6 °F /  7.6 °C 44.0 °F /  6.7 °C 30.00in /  1015.8hPa SW 3.0mph /  4.8km/h 5.0mph /  8km/h 94% 0.00in /  0mm
15:26 45.7 °F /  7.6 °C 44.1 °F /  6.7 °C 30.00in /  1015.8hPa SW 5.0mph /  8km/h 7.0mph /  11.3km/h 94% 0.00in /  0mm
15:31 45.7 °F /  7.6 °C 43.8 °F /  6.6 °C 30.00in /  1015.8hPa SW 5.0mph /  8km/h 7.0mph /  11.3km/h 93% 0.00in /  0mm
15:36 45.9 °F /  7.7 °C 44.0 °F /  6.7 °C 30.01in /  1016.1hPa WSW 3.0mph /  4.8km/h 6.0mph /  9.7km/h 93% 0.00in /  0mm
15:41 46.2 °F /  7.9 °C 44.3 °F /  6.8 °C 30.01in /  1016.1hPa SW 4.0mph /  6.4km/h 5.0mph /  8km/h 93% 0.00in /  0mm
15:46 46.3 °F /  7.9 °C 44.4 °F /  6.9 °C 30.01in /  1016.1hPa SW 5.0mph /  8km/h 6.0mph /  9.7km/h 93% 0.00in /  0mm
15:51 46.2 °F /  7.9 °C 44.0 °F /  6.7 °C 30.01in /  1016.1hPa WSW 6.0mph /  9.7km/h 6.0mph /  9.7km/h 92% 0.00in /  0mm
15:56 46.2 °F /  7.9 °C 44.3 °F /  6.8 °C 30.01in /  1016.1hPa SW 5.0mph /  8km/h 8.0mph /  12.9km/h 93% 0.00in /  0mm
16:01 46.1 °F /  7.8 °C 43.9 °F /  6.6 °C 30.01in /  1016.1hPa SW 4.0mph /  6.4km/h 6.0mph /  9.7km/h 92% 0.00in /  0mm
16:06 46.0 °F /  7.8 °C 44.1 °F /  6.7 °C 30.02in /  1016.5hPa SW 2.0mph /  3.2km/h 6.0mph /  9.7km/h 93% 0.00in /  0mm
16:11 46.0 °F /  7.8 °C 44.1 °F /  6.7 °C 30.02in /  1016.5hPa SW 5.0mph /  8km/h 5.0mph /  8km/h 93% 0.00in /  0mm
16:16 46.0 °F /  7.8 °C 44.1 °F /  6.7 °C 30.02in /  1016.5hPa SSW 1.0mph /  1.6km/h 5.0mph /  8km/h 93% 0.00in /  0mm
16:21 46.0 °F /  7.8 °C 44.1 °F /  6.7 °C 30.02in /  1016.5hPa SSW 1.0mph /  1.6km/h 5.0mph /  8km/h 93% 0.00in /  0mm
16:26 46.0 °F /  7.8 °C 44.1 °F /  6.7 °C 30.02in /  1016.5hPa SW 4.0mph /  6.4km/h 6.0mph /  9.7km/h 93% 0.00in /  0mm
16:31 46.0 °F /  7.8 °C 44.1 °F /  6.7 °C 30.02in /  1016.5hPa SW 4.0mph /  6.4km/h 4.0mph /  6.4km/h 93% 0.00in /  0mm
16:36 46.0 °F /  7.8 °C 44.1 °F /  6.7 °C 30.02in /  1016.5hPa SW 3.0mph /  4.8km/h 5.0mph /  8km/h 93% 0.00in /  0mm
16:41 46.1 °F /  7.8 °C 44.2 °F /  6.8 °C 30.02in /  1016.5hPa SW 4.0mph /  6.4km/h 4.0mph /  6.4km/h 93% 0.00in /  0mm
16:46 46.1 °F /  7.8 °C 44.2 °F /  6.8 °C 30.02in /  1016.5hPa SW 3.0mph /  4.8km/h 4.0mph /  6.4km/h 93% 0.00in /  0mm
16:51 46.1 °F /  7.8 °C 43.9 °F /  6.6 °C 30.02in /  1016.5hPa SW 3.0mph /  4.8km/h 5.0mph /  8km/h 92% 0.00in /  0mm
16:56 46.1 °F /  7.8 °C 44.2 °F /  6.8 °C 30.02in /  1016.5hPa SW 4.0mph /  6.4km/h 5.0mph /  8km/h 93% 0.00in /  0mm
17:01 46.1 °F /  7.8 °C 43.9 °F /  6.6 °C 30.03in /  1016.8hPa SW 5.0mph /  8km/h 6.0mph /  9.7km/h 92% 0.00in /  0mm
17:06 46.1 °F /  7.8 °C 43.9 °F /  6.6 °C 30.02in /  1016.5hPa SW 4.0mph /  6.4km/h 6.0mph /  9.7km/h 92% 0.00in /  0mm
17:11 46.1 °F /  7.8 °C 43.9 °F /  6.6 °C 30.03in /  1016.8hPa WSW 1.0mph /  1.6km/h 3.0mph /  4.8km/h 92% 0.00in /  0mm
17:16 46.2 °F /  7.9 °C 44.0 °F /  6.7 °C 30.03in /  1016.8hPa WSW 2.0mph /  3.2km/h 2.0mph /  3.2km/h 92% 0.00in /  0mm
17:21 46.1 °F /  7.8 °C 43.9 °F /  6.6 °C 30.03in /  1016.8hPa West 1.0mph /  1.6km/h 3.0mph /  4.8km/h 92% 0.00in /  0mm
17:26 46.0 °F /  7.8 °C 43.8 °F /  6.6 °C 30.03in /  1016.8hPa West 2.0mph /  3.2km/h 2.0mph /  3.2km/h 92% 0.00in /  0mm
17:31 46.0 °F /  7.8 °C 43.8 °F /  6.6 °C 30.03in /  1016.8hPa West 1.0mph /  1.6km/h 2.0mph /  3.2km/h 92% 0.00in /  0mm
17:37 45.9 °F /  7.7 °C 43.4 °F /  6.3 °C 30.03in /  1016.8hPa West 2.0mph /  3.2km/h 5.0mph /  8km/h 91% 0.00in /  0mm
17:42 45.8 °F /  7.7 °C 43.3 °F /  6.3 °C 30.03in /  1016.8hPa West 2.0mph /  3.2km/h 3.0mph /  4.8km/h 91% 0.00in /  0mm
17:47 45.8 °F /  7.7 °C 43.6 °F /  6.4 °C 30.04in /  1017.2hPa West 1.0mph /  1.6km/h 3.0mph /  4.8km/h 92% 0.00in /  0mm
17:52 45.8 °F /  7.7 °C 43.6 °F /  6.4 °C 30.04in /  1017.2hPa West 1.0mph /  1.6km/h 4.0mph /  6.4km/h 92% 0.00in /  0mm
17:57 45.7 °F /  7.6 °C 43.5 °F /  6.4 °C 30.04in /  1017.2hPa WSW 1.0mph /  1.6km/h 2.0mph /  3.2km/h 92% 0.00in /  0mm
18:02 45.7 °F /  7.6 °C 43.2 °F /  6.2 °C 30.04in /  1017.2hPa WSW 1.0mph /  1.6km/h 4.0mph /  6.4km/h 91% 0.00in /  0mm
18:07 45.6 °F /  7.6 °C 43.4 °F /  6.3 °C 30.04in /  1017.2hPa West 1.0mph /  1.6km/h 2.0mph /  3.2km/h 92% 0.00in /  0mm
18:12 45.4 °F /  7.4 °C 42.9 °F /  6.1 °C 30.04in /  1017.2hPa WNW 4.0mph /  6.4km/h 4.0mph /  6.4km/h 91% 0.00in /  0mm
18:17 45.3 °F /  7.4 °C 42.8 °F /  6 °C 30.04in /  1017.2hPa WNW 2.0mph /  3.2km/h 4.0mph /  6.4km/h 91% 0.00in /  0mm
18:22 45.1 °F /  7.3 °C 42.9 °F /  6.1 °C 30.05in /  1017.5hPa WNW 1.0mph /  1.6km/h 3.0mph /  4.8km/h 92% 0.00in /  0mm
18:27 45.0 °F /  7.2 °C 42.8 °F /  6 °C 30.05in /  1017.5hPa WNW 1.0mph /  1.6km/h 3.0mph /  4.8km/h 92% 0.00in /  0mm
18:32 44.9 °F /  7.2 °C 42.7 °F /  5.9 °C 30.05in /  1017.5hPa WNW 2.0mph /  3.2km/h 3.0mph /  4.8km/h 92% 0.00in /  0mm
18:37 44.9 °F /  7.2 °C 42.4 °F /  5.8 °C 30.05in /  1017.5hPa WNW 2.0mph /  3.2km/h 3.0mph /  4.8km/h 91% 0.00in /  0mm
18:42 44.8 °F /  7.1 °C 42.6 °F /  5.9 °C 30.05in /  1017.5hPa Calm   1.0mph /  1.6km/h 92% 0.00in /  0mm
18:47 44.7 °F /  7.1 °C 42.5 °F /  5.8 °C 30.05in /  1017.5hPa Calm   1.0mph /  1.6km/h 92% 0.00in /  0mm
18:52 44.7 °F /  7.1 °C 42.5 °F /  5.8 °C 30.05in /  1017.5hPa Calm     92% 0.00in /  0mm
18:57 44.6 °F /  7 °C 42.4 °F /  5.8 °C 30.05in /  1017.5hPa NW 1.0mph /  1.6km/h 1.0mph /  1.6km/h 92% 0.00in /  0mm
19:02 44.5 °F /  6.9 °C 42.3 °F /  5.7 °C 30.06in /  1017.8hPa NNW 1.0mph /  1.6km/h 2.0mph /  3.2km/h 92% 0.00in /  0mm
19:07 44.5 °F /  6.9 °C 42.3 °F /  5.7 °C 30.06in /  1017.8hPa NW 3.0mph /  4.8km/h 3.0mph /  4.8km/h 92% 0.00in /  0mm
19:12 44.5 °F /  6.9 °C 42.3 °F /  5.7 °C 30.06in /  1017.8hPa NNW 3.0mph /  4.8km/h 4.0mph /  6.4km/h 92% 0.00in /  0mm
19:17 44.5 °F /  6.9 °C 42.3 °F /  5.7 °C 30.06in /  1017.8hPa NW 2.0mph /  3.2km/h 4.0mph /  6.4km/h 92% 0.00in /  0mm
19:22 44.4 °F /  6.9 °C 42.2 °F /  5.7 °C 30.06in /  1017.8hPa NW 3.0mph /  4.8km/h 3.0mph /  4.8km/h 92% 0.00in /  0mm
19:27 44.4 °F /  6.9 °C 42.2 °F /  5.7 °C 30.06in /  1017.8hPa NW 2.0mph /  3.2km/h 2.0mph /  3.2km/h 92% 0.00in /  0mm
19:32 44.3 °F /  6.8 °C 42.1 °F /  5.6 °C 30.07in /  1018.2hPa NW 1.0mph /  1.6km/h 2.0mph /  3.2km/h 92% 0.00in /  0mm
19:37 44.2 °F /  6.8 °C 42.0 °F /  5.6 °C 30.07in /  1018.2hPa NW 2.0mph /  3.2km/h 3.0mph /  4.8km/h 92% 0.00in /  0mm
19:42 44.2 °F /  6.8 °C 42.0 °F /  5.6 °C 30.07in /  1018.2hPa NW 1.0mph /  1.6km/h 2.0mph /  3.2km/h 92% 0.00in /  0mm
19:47 44.1 °F /  6.7 °C 41.9 °F /  5.5 °C 30.08in /  1018.5hPa NW 1.0mph /  1.6km/h 2.0mph /  3.2km/h 92% 0.00in /  0mm
19:52 44.0 °F /  6.7 °C 42.1 °F /  5.6 °C 30.08in /  1018.5hPa NW 1.0mph /  1.6km/h 2.0mph /  3.2km/h 93% 0.00in /  0mm
19:57 43.9 °F /  6.6 °C 41.7 °F /  5.4 °C 30.08in /  1018.5hPa NW 1.0mph /  1.6km/h 4.0mph /  6.4km/h 92% 0.00in /  0mm
20:02 43.9 °F /  6.6 °C 41.7 °F /  5.4 °C 30.08in /  1018.5hPa NW 2.0mph /  3.2km/h 3.0mph /  4.8km/h 92% 0.00in /  0mm
20:07 43.8 °F /  6.6 °C 41.9 °F /  5.5 °C 30.08in /  1018.5hPa West 1.0mph /  1.6km/h 2.0mph /  3.2km/h 93% 0.00in /  0mm
20:12 43.7 °F /  6.5 °C 41.8 °F /  5.4 °C 30.08in /  1018.5hPa Calm   1.0mph /  1.6km/h 93% 0.00in /  0mm
20:17 43.7 °F /  6.5 °C 41.8 °F /  5.4 °C 30.08in /  1018.5hPa WNW 1.0mph /  1.6km/h 1.0mph /  1.6km/h 93% 0.00in /  0mm
20:22 43.6 °F /  6.4 °C 41.7 °F /  5.4 °C 30.09in /  1018.8hPa WNW 1.0mph /  1.6km/h 1.0mph /  1.6km/h 93% 0.00in /  0mm
20:28 43.6 °F /  6.4 °C 41.7 °F /  5.4 °C 30.09in /  1018.8hPa Calm   2.0mph /  3.2km/h 93% 0.00in /  0mm
20:33 43.6 °F /  6.4 °C 41.7 °F /  5.4 °C 30.09in /  1018.8hPa NW 1.0mph /  1.6km/h 2.0mph /  3.2km/h 93% 0.00in /  0mm
20:38 43.5 °F /  6.4 °C 41.6 °F /  5.3 °C 30.09in /  1018.8hPa NW 2.0mph /  3.2km/h 2.0mph /  3.2km/h 93% 0.00in /  0mm
20:43 43.4 °F /  6.3 °C 41.5 °F /  5.3 °C 30.10in /  1019.2hPa NW 3.0mph /  4.8km/h 3.0mph /  4.8km/h 93% 0.00in /  0mm
20:48 43.4 °F /  6.3 °C 41.5 °F /  5.3 °C 30.10in /  1019.2hPa NNW 1.0mph /  1.6km/h 2.0mph /  3.2km/h 93% 0.00in /  0mm
20:53 43.3 °F /  6.3 °C 41.4 °F /  5.2 °C 30.10in /  1019.2hPa NNW 1.0mph /  1.6km/h 2.0mph /  3.2km/h 93% 0.00in /  0mm
20:58 43.3 °F /  6.3 °C 41.4 °F /  5.2 °C 30.10in /  1019.2hPa North 1.0mph /  1.6km/h 1.0mph /  1.6km/h 93% 0.00in /  0mm
21:03 43.3 °F /  6.3 °C 41.4 °F /  5.2 °C 30.09in /  1018.8hPa NNE 1.0mph /  1.6km/h 2.0mph /  3.2km/h 93% 0.00in /  0mm
21:08 43.2 °F /  6.2 °C 41.3 °F /  5.2 °C 30.10in /  1019.2hPa Calm   1.0mph /  1.6km/h 93% 0.00in /  0mm
21:13 43.2 °F /  6.2 °C 41.3 °F /  5.2 °C 30.10in /  1019.2hPa North 2.0mph /  3.2km/h 3.0mph /  4.8km/h 93% 0.00in /  0mm
21:18 43.1 °F /  6.2 °C 41.2 °F /  5.1 °C 30.10in /  1019.2hPa North 1.0mph /  1.6km/h 1.0mph /  1.6km/h 93% 0.00in /  0mm
21:23 43.1 °F /  6.2 °C 41.5 °F /  5.3 °C 30.10in /  1019.2hPa North 1.0mph /  1.6km/h 1.0mph /  1.6km/h 94% 0.00in /  0mm
21:28 43.0 °F /  6.1 °C 41.4 °F /  5.2 °C 30.11in /  1019.5hPa North 1.0mph /  1.6km/h 1.0mph /  1.6km/h 94% 0.00in /  0mm
21:33 42.9 °F /  6.1 °C 41.3 °F /  5.2 °C 30.11in /  1019.5hPa Calm     94% 0.00in /  0mm
21:38 42.9 °F /  6.1 °C 41.3 °F /  5.2 °C 30.11in /  1019.5hPa Calm     94% 0.00in /  0mm
21:43 42.8 °F /  6 °C 41.2 °F /  5.1 °C 30.11in /  1019.5hPa Calm     94% 0.00in /  0mm
21:48 42.7 °F /  5.9 °C 41.1 °F /  5.1 °C 30.11in /  1019.5hPa North 1.0mph /  1.6km/h 1.0mph /  1.6km/h 94% 0.00in /  0mm
21:53 42.7 °F /  5.9 °C 41.1 °F /  5.1 °C 30.11in /  1019.5hPa Calm   1.0mph /  1.6km/h 94% 0.00in /  0mm
21:58 42.6 °F /  5.9 °C 41.0 °F /  5 °C 30.11in /  1019.5hPa Calm     94% 0.00in /  0mm
22:03 42.5 °F /  5.8 °C 40.9 °F /  4.9 °C 30.12in /  1019.9hPa Calm     94% 0.00in /  0mm
22:08 42.4 °F /  5.8 °C 40.8 °F /  4.9 °C 30.12in /  1019.9hPa Calm     94% 0.00in /  0mm
22:13 42.5 °F /  5.8 °C 40.9 °F /  4.9 °C 30.12in /  1019.9hPa Calm     94% 0.00in /  0mm
22:18 42.5 °F /  5.8 °C 40.9 °F /  4.9 °C 30.12in /  1019.9hPa North 1.0mph /  1.6km/h 1.0mph /  1.6km/h 94% 0.00in /  0mm
22:23 42.6 °F /  5.9 °C 41.0 °F /  5 °C 30.13in /  1020.2hPa Calm   1.0mph /  1.6km/h 94% 0.00in /  0mm
22:28 42.7 °F /  5.9 °C 41.1 °F /  5.1 °C 30.13in /  1020.2hPa East 2.0mph /  3.2km/h 2.0mph /  3.2km/h 94% 0.00in /  0mm
22:33 42.6 °F /  5.9 °C 41.0 °F /  5 °C 30.13in /  1020.2hPa East 1.0mph /  1.6km/h 2.0mph /  3.2km/h 94% 0.00in /  0mm
22:39 42.6 °F /  5.9 °C 41.0 °F /  5 °C 30.13in /  1020.2hPa East 1.0mph /  1.6km/h 1.0mph /  1.6km/h 94% 0.00in /  0mm
22:44 42.6 °F /  5.9 °C 41.0 °F /  5 °C 30.13in /  1020.2hPa Calm   1.0mph /  1.6km/h 94% 0.00in /  0mm
22:49 42.6 °F /  5.9 °C 41.0 °F /  5 °C 30.12in /  1019.9hPa East 1.0mph /  1.6km/h 1.0mph /  1.6km/h 94% 0.00in /  0mm
22:54 42.6 °F /  5.9 °C 41.0 °F /  5 °C 30.12in /  1019.9hPa East 1.0mph /  1.6km/h 1.0mph /  1.6km/h 94% 0.00in /  0mm
22:59 42.6 °F /  5.9 °C 41.0 °F /  5 °C 30.12in /  1019.9hPa Calm   1.0mph /  1.6km/h 94% 0.00in /  0mm
23:04 42.5 °F /  5.8 °C 40.9 °F /  4.9 °C 30.12in /  1019.9hPa East 2.0mph /  3.2km/h 2.0mph /  3.2km/h 94% 0.00in /  0mm
23:09 42.4 °F /  5.8 °C 41.1 °F /  5.1 °C 30.12in /  1019.9hPa East 2.0mph /  3.2km/h 3.0mph /  4.8km/h 95% 0.00in /  0mm
23:14 42.4 °F /  5.8 °C 41.1 °F /  5.1 °C 30.12in /  1019.9hPa East 2.0mph /  3.2km/h 2.0mph /  3.2km/h 95% 0.00in /  0mm
23:19 42.4 °F /  5.8 °C 41.1 °F /  5.1 °C 30.12in /  1019.9hPa ENE 1.0mph /  1.6km/h 2.0mph /  3.2km/h 95% 0.00in /  0mm
23:24 42.4 °F /  5.8 °C 41.1 °F /  5.1 °C 30.12in /  1019.9hPa East 1.0mph /  1.6km/h 2.0mph /  3.2km/h 95% 0.00in /  0mm
23:29 42.4 °F /  5.8 °C 41.1 °F /  5.1 °C 30.12in /  1019.9hPa Calm   1.0mph /  1.6km/h 95% 0.00in /  0mm
23:34 42.4 °F /  5.8 °C 41.1 °F /  5.1 °C 30.12in /  1019.9hPa ENE 2.0mph /  3.2km/h 2.0mph /  3.2km/h 95% 0.00in /  0mm
23:39 42.4 °F /  5.8 °C 41.1 °F /  5.1 °C 30.13in /  1020.2hPa Calm   1.0mph /  1.6km/h 95% 0.00in /  0mm
23:44 42.3 °F /  5.7 °C 41.0 °F /  5 °C 30.13in /  1020.2hPa ENE 1.0mph /  1.6km/h 2.0mph /  3.2km/h 95% 0.00in /  0mm
23:49 42.3 °F /  5.7 °C 41.0 °F /  5 °C 30.13in /  1020.2hPa ESE 2.0mph /  3.2km/h 2.0mph /  3.2km/h 95% 0.00in /  0mm
23:54 42.3 °F /  5.7 °C 41.0 °F /  5 °C 30.13in /  1020.2hPa East 2.0mph /  3.2km/h 3.0mph /  4.8km/h 95% 0.00in /  0mm
23:59 42.3 °F /  5.7 °C 41.0 °F /  5 °C 30.13in /  1020.2hPa East 2.0mph /  3.2km/h 3.0mph /  4.8km/h 95% 0.00in /  0mm
Compliments of Weather Underground